NWS Home NWS Lubbock West Texas Mesonet Latest Conditions as of 1156 AM, Tue Sep 29, 2020

Latest   N   C   S   Daily Sum   3hrΔ   24hrΔ   Soil Data 
Site Map   24hr Precip   72hr Precip   Google Plot


Station Time of Last Temp Dew Pt. RH Wind Direction Wind Speed Wind Gust Max Wind Max Temp Min Temp Max RH Min RH Altimeter 1HR Rain Today's Rain Solar Rad RFTI
Abernathy 5ENE  11:50 AM 71 21 15% W1519 26 mph 283° @ 1056 AM 71 40 54 15 30.31" 0 0 772 1
Adrian 6WSW  11:50 AM 66 25 20% W1620 25 mph 248° @ 1108 AM 66 45 44 20 30.33" 0 0 762 0
Aiken 3WSW  11:50 AM 70 24 17% W1823 27 mph 276° @ 1053 AM 71 36 64 17 30.31" 0 0 803 0
Amarillo 15NNW   11:50 AM 70 25 19% W1620 24 mph 281° @ 1139 AM 70 37 57 19 30.28" 0 0 731 0
Amarillo 7SSE  11:50 AM 72 26 18% W2022 26 mph 278° @ 1018 AM 72 37 59 17 30.30" 0 0 738 0
Amarillo 9NNE  11:50 AM 71 27 19% W1619 23 mph 259° @ 1142 AM 71 32 78 19 30.28" 0 0 717 0
Amherst 1NE  11:50 AM 70 24 17% W1318 21 mph 253° @ 1130 AM 70 36 57 17 30.32" 0 0 748 0
Andrews 2E  11:50 AM 71 22 15% W912 16 mph 241° @ 0850 AM 71 44 42 15 30.35" 0 0 789 0
Anton 6SSW  11:50 AM 70 23 17% W1317 19 mph 268° @ 1130 AM 70 35 53 17 30.31" 0 0 750 0
Aspermont 3NE  11:50 AM 74 31 21% W1419 21 mph 269° @ 1135 AM 74 45 56 21 30.26" 0 0 772 0
Big Bend NP - Castolon  11:50 AM 74 31 21% NE01 16 mph 287° @ 0412 AM 74 62 31 21 30.32" 0 0 813 0
Big Bend NP - Persimmon Gap  11:50 AM 70 29 22% NE67 22 mph 4° @ 0150 AM 70 57 35 21 30.35" 0 0 812 0
Big Lake 1WNW  11:50 AM 70 23 17% NW68 12 mph 315° @ 1147 AM 70 41 64 15 30.34" 0 0 832 0
Bootleg 11WNW  11:50 AM 67 24 19% W1718 26 mph 233° @ 1104 AM 68 42 44 18 30.35" 0 0 686 0
Borger 7E  11:50 AM 71 24 17% W1823 31 mph 289° @ 1110 AM 72 41 44 17 30.26" 0 0 799 0
Boys Ranch 1WSW  11:50 AM 69 26 19% W1114 21 mph 290° @ 1142 AM 69 39 53 19 30.29" 0 0 716 0
Brownfield 2S  11:50 AM 72 24 16% W1114 16 mph 291° @ 1144 AM 72 41 43 16 30.32" 0 0 765 0
Canadian 6E  11:50 AM 71 29 21% W1114 21 mph 292° @ 1027 AM 71 39 56 21 30.19" 0 0 772 0
Caprock Canyons State Park  11:50 AM 74 20 13% W1820 26 mph 289° @ 1112 AM 74 48 32 13 30.26" 0 0 821 1
Childress 2NNE  11:50 AM 74 31 21% W1319 20 mph 276° @ 1045 AM 74 48 38 21 30.23" 0 0 753 0
Clarendon 2WSW  11:50 AM 74 24 15% W1624 24 mph 283° @ 1150 AM 74 41 47 15 30.25" 0 0 770 1
Claude 12SW  11:50 AM 70 25 18% W1317 29 mph 269° @ 1013 AM 70 47 39 18 30.28" 0 0 781 0
Clyde 2WNW  11:50 AM 72 26 18% NW1418 19 mph 288° @ 1141 AM 74 45 68 18 30.28" 0 0 801 0
Colorado City 5NW  11:50 AM 74 26 17% NW1215 15 mph 298° @ 1150 AM 74 40 65 17 30.31" 0 0 773 0
Comanche Springs  11:50 AM 76 29 17% NW1016 21 mph 286° @ 1129 AM 76 39 60 16 30.23" 0 0 825 0
Coyanosa 2N  11:50 AM 72 27 19% S89 10 mph 181° @ 1149 AM 72 44 59 19 30.35" 0 0 790 0
Crane 1NNW   11:50 AM 69 23 18% S57 10 mph 217° @ 1147 AM 70 39 49 17 30.35" 0 0 810 0
Crowell 1E  11:45 AM 76 30 18% NW1316 19 mph 320° @ 1133 AM 76 50 38 18 30.23" 0 0 773 0
Dell City  11:50 AM 66 26 22% S34 11 mph 264° @ 1218 AM 66 41 69 20 30.40" 0 0 738 0
Denver City 7WNW  11:50 AM 69 22 16% W1014 16 mph 270° @ 1130 AM 69 41 48 16 30.35" 0 0 797 0
Dimmitt 2NE  11:50 AM 68 24 19% W1521 26 mph 253° @ 1025 AM 68 39 51 19 30.32" 0 0 725 0
Doole 3WNW  11:50 AM 74 28 18% W1115 20 mph 302° @ 1142 AM 74 43 68 18 30.28" 0 0 839 0
Dora NM 2SW  11:50 AM 66 21 17% SW1318 20 mph 240° @ 1145 AM 66 41 41 17 30.36" 0 0 716 0
Dozier 3W  11:50 AM 76 26 15% NW1420 23 mph 310° @ 1149 AM 77 39 50 15 30.23" 0 0 765 1
Earth 9WSW  11:50 AM 68 22 17% SW2124 24 mph 247° @ 1150 AM 69 37 60 17 30.33" 0 0 779 1
Endee NM 2SW  11:50 AM 68 25 20% SW810 20 mph 246° @ 1143 AM 69 36 63 19 30.32" 0 0 725 0
Estelline 3SSE  11:50 AM 74 31 20% NW1418 24 mph 288° @ 1108 AM 74 48 34 20 30.24" 0 0 785 0
Floydada 2NNE  11:50 AM 74 18 12% W1824 25 mph 286° @ 1115 AM 74 35 63 12 30.29" 0 0 775 2
Fluvanna 3WNW  11:50 AM 72 22 15% W1218 20 mph 288° @ 1125 AM 72 43 49 15 30.30" 0 0 739 0
Fort Chadbourne  11:50 AM 73 28 19% W811 17 mph 309° @ 1135 AM 73 45 84 18 30.30" 0 0 605 0
Fort Lancaster  11:50 AM 72 26 18% SW46 9 mph 269° @ 1137 AM 72 39 78 18 30.33" 0 0 805 0
Fort Lewis CO  11:50 AM 61 25 25% E46 15 mph 58° @ 0254 AM 61 38 42 23 30.49" 0 0 740 0
Fort McKavett  11:50 AM 72 28 19% N811 12 mph 339° @ 1147 AM 73 36 95 18 30.32" 0 0 828 0
Friona 2NE  11:50 AM 69 23 18% W1722 27 mph 251° @ 1055 AM 69 36 59 18 30.33" 0 0 773 0
Fritch 1WNW  11:50 AM 71 28 21% W1520 25 mph 248° @ 1115 AM 71 42 43 19 30.27" 0 0 777 0
Gail 2ESE  11:50 AM 74 17 12% W1216 16 mph 265° @ 1145 AM 74 42 51 12 30.30" 0 0 764 0
Goodlett 3W  11:50 AM 76 31 19% W1722 22 mph 288° @ 1150 AM 76 42 58 19 30.22" 0 0 803 1
Goodnight  11:50 AM 74 26 17% W2125 29 mph 294° @ 1127 AM 74 43 45 17 30.28" 0 0 691 1
Graham 5SSW  11:50 AM 72 20 14% W1016 21 mph 280° @ 1135 AM 72 43 47 14 30.31" 0 0 781 0
Guadalupe Mtns Natl Park  11:50 AM 65 26 24% SW1117 22 mph 223° @ 0957 AM 65 43 45 23 30.43" 0 0 717 0
Guthrie 10WSW  11:50 AM 78 16 10% NW1013 19 mph 260° @ 1035 AM 78 48 30 10 30.24" 0 0 737 0
Hackberry 2SSE  11:50 AM 78 27 16% NW1316 19 mph 312° @ 1147 AM 78 47 40 15 30.24" 0 0 839 0
Happy 1E  11:50 AM 71 26 19% W1720 28 mph 285° @ 1111 AM 71 45 39 18 30.31" 0 0 790 0
Hart 3N  11:50 AM 69 23 18% W1824 25 mph 264° @ 1120 AM 69 34 64 18 30.32" 0 0 755 0
Haskell 1NW  11:50 AM 75 31 20% W1519 21 mph 276° @ 1120 AM 75 45 68 20 30.24" 0 0 743 0
Hefner 1SW  11:50 AM 77 25 14% NW1316 18 mph 304° @ 1140 AM 77 44 66 14 30.23" 0 0 783 1
Hereford 2NW  11:50 AM 69 25 19% W1417 24 mph 259° @ 1045 AM 69 34 59 19 30.31" 0 0 732 0
Hobbs NM 5NW  11:50 AM 68 16 14% SW911 15 mph 232° @ 1128 AM 68 41 49 13 30.39" 0 0 785 0
Jayton 1SSE  11:50 AM 75 27 17% W1216 19 mph 271° @ 1140 AM 75 42 53 17 30.27" 0 0 753 0
Junction 1SSW  11:50 AM 73 30 21% NW1011 11 mph 313° @ 1150 AM 73 35 98 20 30.30" 0 0 708 0
Kent 9E  11:50 AM 69 25 19% NE67 9 mph 107° @ 0104 AM 70 45 46 19 30.39" 0 0 771 0
Knox City 3NW  11:50 AM 76 30 18% W912 19 mph 279° @ 1132 AM 77 42 64 16 30.23" 0 0 823 0
Lake Alan Henry 1NW  11:50 AM 75 22 14% NW1418 30 mph 304° @ 1141 AM 75 45 47 14 30.28" 0 0 762 0
Lake McClellan 2NW  11:50 AM 72 26 18% W2126 30 mph 279° @ 1048 AM 72 42 47 18 30.26" 0 0 764 1
Lamesa 2SE  11:50 AM 69 22 17% W1117 20 mph 233° @ 1125 AM 69 43 52 17 30.33" 0 0 784 0
Lesley 2S  11:50 AM 75 30 19% W1214 26 mph 285° @ 1053 AM 76 40 53 18 30.24" 0 0 813 0
Levelland 4S  11:50 AM 71 23 16% W1315 20 mph 263° @ 1141 AM 71 37 54 16 30.32" 0 0 762 0
Lomax 1SSE  11:50 AM 70 22 16% SW68 14 mph 234° @ 1141 AM 70 39 71 16 30.34" 0 0 814 0
Lubbock 3WNW TTU  11:50 AM 72 22 15% NW1319 22 mph 292° @ 1110 AM 73 41 48 15 30.31" 0 0 764 0
McAdoo 3NNW  11:50 AM 72 25 17% NW1620 24 mph 303° @ 1117 AM 73 40 49 16 30.29" 0 0 783 0
McCamey 1SSW  11:50 AM 68 25 20% W23 12 mph 286° @ 1122 AM 68 45 55 20 30.36" 0 0 704 0
McLean 1E  11:50 AM 73 27 18% NW1824 27 mph 303° @ 1115 AM 73 44 42 18 30.23" 0 0 839 0
Memphis 1NE  11:50 AM 76 26 16% W1015 20 mph 288° @ 1055 AM 76 42 56 16 30.23" 0 0 716 0
Menard 2NW   11:50 AM 72 29 20% N68 16 mph 358° @ 1138 AM 72 37 95 19 30.30" 0 0 754 0
Mertzon 3NNE  11:50 AM 73 26 17% NW811 13 mph 295° @ 1125 AM 73 36 97 16 30.32" 0 0 760 0
Morton 1ENE  11:50 AM 70 18 14% W1317 19 mph 251° @ 1110 AM 70 36 57 14 30.33" 0 0 750 0
Muleshoe 2SSW  11:50 AM 69 20 15% SW1521 23 mph 260° @ 1130 AM 69 31 68 15 30.33" 0 0 774 1
New Home  11:50 AM 72 21 15% NW1317 19 mph 275° @ 1059 AM 72 40 52 14 30.33" 0 0 777 0
Northfield 1S  11:50 AM 78 24 13% W1218 19 mph 285° @ 1055 AM 78 42 43 13 30.24" 0 0 750 0
O'Donnell 1N  11:50 AM 73 22 15% W1218 20 mph 287° @ 1125 AM 73 38 59 14 30.31" 0 0 677 0
Olton 6S  11:50 AM 70 25 19% W1519 22 mph 263° @ 1110 AM 70 37 63 19 30.31" 0 0 739 0
Paducah 10SW  11:50 AM 77 21 13% NW1419 23 mph 298° @ 1110 AM 77 51 30 13 30.24" 0 0 757 0
Palo Duro 4E (JA Ranch)  11:50 AM 75 27 17% W1317 28 mph 282° @ 1042 AM 75 38 55 17 30.25" 0 0 773 0
Palo Duro Canyon SP Floor  11:50 AM 75 27 17% NW58 24 mph 306° @ 1102 AM 75 37 55 16 30.27" 0 0 722 0
Palo Duro Canyon State Park Rim  11:50 AM 72 24 17% W1420 27 mph 278° @ 1008 AM 72 42 45 16 30.30" 0 0 787 0
Palo Duro Reservoir 1NW   10:15 AM 65 27 24% W1821 22 mph 286° @ 1003 AM 65 35 64 23 30.24" 0 0 510 0
Panhandle 1SSW  11:50 AM 69 28 21% W1922 27 mph 275° @ 1109 AM 69 35 64 21 30.28" 0 0 769 0
Plains 3N  11:50 AM 69 22 17% W1117 18 mph 253° @ 1140 AM 69 38 45 17 30.34" 0 0 775 0
Plainview 1S  11:50 AM 69 25 19% W1623 24 mph 279° @ 1055 AM 69 43 51 19 30.30" 0 0 749 0
Post 1NE  11:50 AM 75 17 11% W1216 20 mph 263° @ 1145 AM 75 46 39 11 30.29" 0 0 775 0
Ralls 1SE  11:50 AM 71 18 13% W1520 25 mph 270° @ 1120 AM 72 41 50 13 30.30" 0 0 769 1
Reese Center  11:50 AM 71 23 16% NW1316 23 mph 282° @ 1103 AM 71 39 49 16 30.31" 0 0 768 0
Roaring Springs 3N  11:50 AM 74 26 17% W1319 25 mph 285° @ 1115 AM 74 43 49 16 30.27" 0 0 730 0
Romero 11SSW  11:50 AM 66 25 21% SW1417 24 mph 235° @ 1132 AM 66 40 46 20 30.31" 0 0 716 0
Rotan 5W  11:50 AM 75 27 17% W1113 26 mph 263° @ 1146 AM 75 48 46 17 30.28" 0 0 793 0
San Angelo 7NW  11:50 AM 72 26 18% W1014 16 mph 295° @ 1145 AM 72 41 76 18 30.30" 0 0 784 0
Seagraves 1SW  11:50 AM 70 25 19% SW1014 16 mph 252° @ 1125 AM 70 39 60 17 30.34" 0 0 700 0
Segovia 7SSW  11:50 AM 71 24 17% N711 14 mph 308° @ 1136 AM 71 49 55 17 30.32" 0 0 838 0
Seminole 2NNE  11:50 AM 70 23 17% SW820 20 mph 231° @ 1150 AM 70 41 52 17 30.34" 0 0 774 0
Seymour 3NW  11:50 AM 75 33 22% NW711 14 mph 288° @ 1130 AM 75 40 82 22 30.22" 0 0 677 0
Sierra Blanca 1SSE  11:50 AM 66 27 23% S1114 15 mph 177° @ 1124 AM 66 48 36 23 30.42" 0 0 721 0
Silverton 7ESE  11:50 AM 73 24 16% W2033 33 mph 280° @ 1150 AM 73 38 50 16 30.28" 0 0 693 0
Slaton 2NE  11:50 AM 72 19 13% NW1318 22 mph 277° @ 1122 AM 73 40 54 13 30.31" 0 0 809 1
Smyer  11:50 AM 71 24 17% W1011 18 mph 287° @ 1056 AM 71 39 51 17 30.32" 0 0 813 0
Snyder 3E  11:50 AM 73 26 17% W1119 20 mph 275° @ 1130 AM 73 45 51 17 30.30" 0 0 720 0
Snyder 3SSW  11:50 AM 72 25 17% W1216 19 mph 258° @ 1144 AM 73 44 51 16 30.30" 0 0 787 0
South Plains 3ENE  11:50 AM 73 24 16% W1922 27 mph 272° @ 1109 AM 73 36 60 16 30.29" 0 0 773 0
Spur 1W  11:50 AM 75 22 14% NW1119 21 mph 291° @ 1125 AM 75 43 44 14 30.26" 0 0 772 0
St. Lawrence 5SW  11:50 AM 69 23 17% SW812 15 mph 245° @ 1135 AM 69 40 55 17 30.34" 0 0 784 0
Stamford 5ESE  11:50 AM 75 30 19% NW1417 21 mph 298° @ 1145 AM 76 43 80 17 30.26" 0 0 802 0
Sterling City 4WSW  11:50 AM 72 24 16% W89 12 mph 270° @ 1149 AM 72 30 98 16 30.33" 0 0 661 0
Stinnett 1NNW  11:50 AM 72 26 18% W2023 27 mph 266° @ 1052 AM 72 40 47 18 30.26" 0 0 750 0
Stratford 4WNW  11:50 AM 73 31 21% W1013 25 mph 257° @ 1026 AM 73 37 53 19 30.26" 0 0 751 0
Sundown 8WSW  11:50 AM 71 20 14% W1017 18 mph 267° @ 1100 AM 72 37 47 14 30.33" 0 0 675 0
Sweetwater 11SW   11:50 AM 69 28 21% W1518 18 mph 269° @ 1150 AM 69 44 56 21 30.32" 0 0 848 0
Tahoka 3NNE  11:50 AM 74 21 13% W1317 21 mph 285° @ 1121 AM 74 38 53 13 30.31" 0 0 772 0
Tarzan 2WNW  11:50 AM 70 24 17% W68 14 mph 241° @ 0946 AM 71 42 47 16 30.33" 0 0 797 0
Tatum NM 2SW  11:50 AM 69 18 14% SW1119 19 mph 237° @ 1150 AM 69 38 39 14 30.36" 0 0 757 0
Throckmorton 1SW  11:50 AM 74 38 26% W1316 21 mph 280° @ 1138 AM 74 47 68 23 30.23" 0 0 828 0
Truscott 2SE  11:50 AM 78 26 15% NW1417 19 mph 313° @ 1131 AM 78 45 49 15 30.23" 0 0 777 1
Tulia 2ENE  11:50 AM 72 25 17% W1925 27 mph 262° @ 1045 AM 72 41 42 17 30.30" 0 0 668 0
Turkey 2WSW  11:50 AM 76 25 15% W1420 23 mph 273° @ 1115 AM 76 44 48 15 30.25" 0 0 679 0
Umbarger 3NNE  11:50 AM 70 26 19% W1519 29 mph 261° @ 1118 AM 70 35 57 19 30.31" 0 0 748 0
Van Horn 3ENE  11:50 AM 68 27 22% S47 9 mph 171° @ 1057 AM 68 42 48 21 30.39" 0 0 799 0
Vigo Park  11:50 AM 72 25 17% W1821 29 mph 273° @ 1047 AM 73 37 56 17 30.30" 0 0 705 0
Wall 2E  11:50 AM 72 30 21% NW78 16 mph 322° @ 1141 AM 72 42 77 21 30.31" 0 0 820 0
Weinert 2NNE  11:50 AM 76 30 19% W1012 19 mph 284° @ 1138 AM 76 44 63 17 30.24" 0 0 734 0
Welch  11:50 AM 73 25 17% W1214 19 mph 259° @ 1146 AM 73 38 66 16 30.33" 0 0 761 0
White River Lake 6NW  11:50 AM 73 22 15% W1318 26 mph 284° @ 1106 AM 73 45 43 14 30.28" 0 0 818 0
Wolfforth 6SSW  11:50 AM 71 21 15% W1215 20 mph 285° @ 1100 AM 71 38 52 15 30.32" 0 0 767 0

West Texas Mesonet Home   Site Map/Menu  NWS Lubbock Soil Data  Daily Summary Page  24hr Precip  72hr Precip  Google Plot